Portada
METAR-TAF:

METAR-TAF

Aeropuertos :

Aeropuerto de Valencia

Valencia, España

latitud: 39-30N, longitud: 000-28W, altitud: 69 m

Observación

El informe se hizo hace 36 minutos, a las 14:00 UTC
Viento 5 kt del sur-sureste, variando entre este y sur-suroeste
Temperatura 17°C
Humedad 29%
Presión 1030 hPa
Visibilidad 10 km o más
sin nubes por debajo de 1500 m y sin presencia de cumulonimbus.

METAR: LEVC 031400Z 15005KT 080V200 CAVOK 17/M01 Q1030 NOSIG

Hora: 15:36 (14:36 UTC)

Pronóstico

El informe se hizo hace 3 horas y 36 minutos, a las 11:00 UTC
Pronóstico válido del 03 a las 12 UTC al 04 a las 12 UTC
Viento 4 kt con dirección variable
Visibilidad 10 km o más
Escasas nubes a una altura de 2500 ft
Temporalmente
del 03 a las 13 UTC al 03 a las 18 UTC
Viento 8 kt del sur-sureste

TAF: LEVC 031100Z 0312/0412 VRB04KT 9999 FEW025 TX18/0313Z TN01/0406Z TEMPO 0313/0318 15008KT

Observaciones y pronósticos meteorológicos de más de 4000 aeropuertos (mensajes METAR y TAF).

Los puntos amarillos y rojos representan las estaciones disponibles.

Ponga el ratón en el punto deseado para ver el nombre de la estación.

Haga clic para ver las observaciones y los pronósticos meteorológicos.

Para cambiar el mapa : haga clic en los botones verdes con una cruz de color negro para hacer un zoom, en el botón verde con un guión para alejar o en las flechas verdes para mapas adyacentes.


METAR-TAF: